createdAt,value
2023-03-08T00:00:39.518Z,3.60
2023-03-08T00:03:17.647Z,3.60
2023-03-08T00:05:45.044Z,3.50
2023-03-08T00:08:12.175Z,3.50
2023-03-08T00:10:42.154Z,3.50
2023-03-08T00:13:09.225Z,3.50
2023-03-08T00:15:39.921Z,3.50
2023-03-08T00:18:07.160Z,3.50
2023-03-08T00:20:34.549Z,3.50
2023-03-08T00:23:01.601Z,3.50
2023-03-08T00:25:28.956Z,3.50
2023-03-08T00:27:58.511Z,3.60
2023-03-08T00:30:28.144Z,3.60
2023-03-08T00:33:01.818Z,3.60
2023-03-08T00:35:29.314Z,3.60
2023-03-08T00:37:56.489Z,3.60
2023-03-08T00:40:23.874Z,3.60
2023-03-08T00:42:51.114Z,3.70
2023-03-08T00:45:18.449Z,3.70
2023-03-08T00:47:48.472Z,3.70
2023-03-08T00:50:18.353Z,3.80
2023-03-08T00:52:48.167Z,3.80
2023-03-08T00:55:15.692Z,3.90
2023-03-08T00:57:42.888Z,4.00
2023-03-08T01:00:13.484Z,4.00
2023-03-08T01:02:42.818Z,4.00
2023-03-08T01:05:10.832Z,4.00
2023-03-08T01:07:37.890Z,4.00
2023-03-08T01:10:07.907Z,3.90
2023-03-08T01:12:36.212Z,3.80
2023-03-08T01:15:05.228Z,3.70
2023-03-08T01:17:32.588Z,3.70
2023-03-08T01:19:59.982Z,3.60
2023-03-08T01:22:27.018Z,3.50
2023-03-08T01:24:54.394Z,3.50
2023-03-08T01:27:21.442Z,3.50
2023-03-08T01:29:51.026Z,3.40
2023-03-08T01:32:18.138Z,3.40
2023-03-08T01:34:50.000Z,3.40
2023-03-08T01:37:19.289Z,3.40
2023-03-08T01:39:46.713Z,3.50
2023-03-08T01:42:13.869Z,3.40
2023-03-08T01:44:55.919Z,3.40
2023-03-08T01:47:27.034Z,3.40
2023-03-08T01:49:57.727Z,3.30
2023-03-08T01:52:33.809Z,3.20
2023-03-08T01:55:07.637Z,3.20
2023-03-08T01:57:43.801Z,3.20
2023-03-08T02:00:17.753Z,3.20
2023-03-08T02:03:02.205Z,3.20
2023-03-08T02:05:40.047Z,3.20
2023-03-08T02:08:07.210Z,3.20
2023-03-08T02:10:38.656Z,3.20
2023-03-08T02:13:07.346Z,3.20
2023-03-08T02:15:34.723Z,3.20
2023-03-08T02:18:01.822Z,3.30
2023-03-08T02:20:29.172Z,3.30
2023-03-08T02:23:06.742Z,3.20
2023-03-08T02:25:34.102Z,3.20
2023-03-08T02:28:04.572Z,3.20
2023-03-08T02:30:35.740Z,3.20
2023-03-08T02:33:03.266Z,3.20
2023-03-08T02:35:30.957Z,3.20
2023-03-08T02:38:00.529Z,3.20
2023-03-08T02:40:27.940Z,3.20
2023-03-08T02:42:55.022Z,3.20
2023-03-08T02:45:23.345Z,3.20
2023-03-08T02:47:50.447Z,3.20
2023-03-08T02:50:17.969Z,3.30
2023-03-08T02:52:45.112Z,3.20
2023-03-08T02:55:12.520Z,3.20
2023-03-08T02:57:41.832Z,3.20
2023-03-08T03:00:10.345Z,3.20
2023-03-08T03:02:37.558Z,3.10
2023-03-08T03:05:06.744Z,3.20
2023-03-08T03:07:37.961Z,3.20
2023-03-08T03:10:07.164Z,3.20
2023-03-08T03:12:34.296Z,3.20
2023-03-08T03:15:04.676Z,3.20
2023-03-08T03:17:32.785Z,3.30
2023-03-08T03:20:00.147Z,3.30
2023-03-08T03:22:28.055Z,3.30
2023-03-08T03:24:55.369Z,3.30
2023-03-08T03:27:26.922Z,3.30
2023-03-08T03:29:54.281Z,3.30
2023-03-08T03:32:21.381Z,3.20
2023-03-08T03:34:48.759Z,3.30
2023-03-08T03:37:18.017Z,3.30
2023-03-08T03:39:48.005Z,3.30
2023-03-08T03:42:15.310Z,3.30
2023-03-08T03:44:42.662Z,3.30
2023-03-08T03:47:09.802Z,3.30
2023-03-08T03:49:37.155Z,3.20
2023-03-08T03:52:04.481Z,3.20
2023-03-08T03:54:31.809Z,3.20
2023-03-08T03:56:58.974Z,3.10
2023-03-08T03:59:26.945Z,3.00
2023-03-08T04:01:54.205Z,2.90
2023-03-08T04:04:22.414Z,2.90
2023-03-08T04:06:49.614Z,2.90
2023-03-08T04:09:18.895Z,2.80
2023-03-08T04:11:48.522Z,2.80
2023-03-08T04:14:18.382Z,2.80
2023-03-08T04:16:45.663Z,2.80
2023-03-08T04:19:13.657Z,2.60
2023-03-08T04:21:43.199Z,2.50
2023-03-08T04:24:10.565Z,2.40
2023-03-08T04:26:37.607Z,2.30
2023-03-08T04:29:05.377Z,2.30
2023-03-08T04:31:37.743Z,2.30
2023-03-08T04:34:08.536Z,2.30
2023-03-08T04:36:36.541Z,2.30
2023-03-08T04:39:06.401Z,2.30
2023-03-08T04:41:33.545Z,2.40
2023-03-08T04:44:00.943Z,2.50
2023-03-08T04:46:28.411Z,2.50
2023-03-08T04:48:56.137Z,2.50
2023-03-08T04:51:25.635Z,2.50
2023-03-08T04:53:58.370Z,2.50
2023-03-08T04:56:25.425Z,2.60
2023-03-08T04:58:55.066Z,2.60
2023-03-08T05:01:23.285Z,2.60
2023-03-08T05:03:53.393Z,2.60
2023-03-08T05:06:22.656Z,2.70
2023-03-08T05:08:52.724Z,2.70
2023-03-08T05:11:25.577Z,2.80
2023-03-08T05:13:58.026Z,2.80
2023-03-08T05:16:28.267Z,2.80
2023-03-08T05:18:55.796Z,2.90
2023-03-08T05:21:27.279Z,2.90
2023-03-08T05:23:59.349Z,2.90
2023-03-08T05:26:26.394Z,2.90
2023-03-08T05:28:53.801Z,2.90
2023-03-08T05:31:21.805Z,2.90
2023-03-08T05:33:51.627Z,2.90
2023-03-08T05:36:19.334Z,3.00
2023-03-08T05:38:47.169Z,3.00
2023-03-08T05:41:17.303Z,3.10
2023-03-08T05:43:44.882Z,3.10
2023-03-08T05:46:20.035Z,3.10
2023-03-08T05:48:47.594Z,3.20
2023-03-08T05:51:17.239Z,3.10
2023-03-08T05:53:45.537Z,3.10
2023-03-08T05:56:26.071Z,3.10
2023-03-08T05:58:58.004Z,3.20
2023-03-08T06:01:28.540Z,3.20
2023-03-08T06:03:57.602Z,3.20
2023-03-08T06:06:27.375Z,3.20
2023-03-08T06:08:55.224Z,3.30
2023-03-08T06:11:23.012Z,3.30
2023-03-08T06:13:50.627Z,3.40
2023-03-08T06:16:17.941Z,3.50
2023-03-08T06:18:45.370Z,3.50
2023-03-08T06:21:17.582Z,3.60
2023-03-08T06:23:45.935Z,3.60
2023-03-08T06:26:15.985Z,3.70
2023-03-08T06:28:43.770Z,3.80
2023-03-08T06:31:17.820Z,3.90
2023-03-08T06:33:45.350Z,4.00
2023-03-08T06:36:19.275Z,4.10
2023-03-08T06:38:51.606Z,4.00
2023-03-08T06:41:20.296Z,4.00
2023-03-08T06:43:48.719Z,4.00
2023-03-08T06:46:18.613Z,4.10
2023-03-08T06:48:50.174Z,4.10
2023-03-08T06:51:18.045Z,4.20
2023-03-08T06:53:46.721Z,4.30
2023-03-08T06:56:16.394Z,4.40
2023-03-08T06:58:46.366Z,4.40
2023-03-08T07:01:14.147Z,4.40
2023-03-08T07:03:46.780Z,4.40
2023-03-08T07:06:13.882Z,4.50
2023-03-08T07:08:45.994Z,4.50
2023-03-08T07:11:13.084Z,4.60
2023-03-08T07:13:42.644Z,4.60
2023-03-08T07:16:13.286Z,4.60
2023-03-08T07:18:41.615Z,4.60
2023-03-08T07:21:11.469Z,4.60
2023-03-08T07:23:38.861Z,4.60
2023-03-08T07:26:10.001Z,4.60
2023-03-08T07:28:37.358Z,4.60
2023-03-08T07:31:04.962Z,4.70
2023-03-08T07:33:34.861Z,4.90
2023-03-08T07:36:02.034Z,5.00
2023-03-08T07:38:29.660Z,5.10
2023-03-08T07:40:59.172Z,5.10
2023-03-08T07:43:28.432Z,5.20
2023-03-08T07:45:55.489Z,5.10
2023-03-08T07:48:25.101Z,5.20
2023-03-08T07:50:52.116Z,5.20
2023-03-08T07:53:24.193Z,5.30
2023-03-08T07:55:51.278Z,5.30
2023-03-08T07:58:18.801Z,5.20
2023-03-08T08:00:46.046Z,5.20
2023-03-08T08:03:15.956Z,5.20
2023-03-08T08:05:43.259Z,5.20
2023-03-08T08:08:10.749Z,5.10
2023-03-08T08:10:40.842Z,5.10
2023-03-08T08:13:08.346Z,5.10
2023-03-08T08:15:35.620Z,5.20
2023-03-08T08:18:05.678Z,5.20
2023-03-08T08:20:35.197Z,5.30
2023-03-08T08:23:06.018Z,5.20
2023-03-08T08:25:33.081Z,5.20
2023-03-08T08:28:00.446Z,5.00
2023-03-08T08:30:27.577Z,5.00
2023-03-08T08:32:54.950Z,4.90
2023-03-08T08:35:37.273Z,4.80
2023-03-08T08:38:09.711Z,4.80
2023-03-08T08:40:38.986Z,4.80
2023-03-08T08:43:08.910Z,4.80
2023-03-08T08:45:42.052Z,4.90
2023-03-08T08:48:09.502Z,5.20
2023-03-08T08:50:38.857Z,5.50
2023-03-08T08:53:06.658Z,5.70
2023-03-08T08:55:34.183Z,5.90
2023-03-08T08:58:03.289Z,6.00
2023-03-08T09:00:33.752Z,6.20
2023-03-08T09:03:04.973Z,6.50
2023-03-08T09:05:33.533Z,6.90
2023-03-08T09:08:01.902Z,7.30
2023-03-08T09:10:32.146Z,7.40
2023-03-08T09:12:59.664Z,7.40
2023-03-08T09:15:27.195Z,7.30
2023-03-08T09:17:56.922Z,7.20
2023-03-08T09:20:26.796Z,7.10
2023-03-08T09:22:56.715Z,7.00
2023-03-08T09:25:23.872Z,7.00
2023-03-08T09:27:51.606Z,7.10
2023-03-08T09:30:18.968Z,7.30
2023-03-08T09:32:46.459Z,7.50
2023-03-08T09:35:13.599Z,7.60
2023-03-08T09:37:43.446Z,7.70
2023-03-08T09:44:35.185Z,7.80
2023-03-08T09:54:24.852Z,6.90
2023-03-08T09:56:55.482Z,6.60
2023-03-08T09:59:34.666Z,6.40
2023-03-08T10:02:33.743Z,6.10
2023-03-08T10:05:42.854Z,5.80
2023-03-08T10:08:22.365Z,5.70
2023-03-08T10:11:17.401Z,5.70
2023-03-08T10:13:53.967Z,5.50
2023-03-08T10:16:35.203Z,5.60
2023-03-08T10:19:20.248Z,5.60
2023-03-08T10:21:48.583Z,5.50
2023-03-08T10:24:45.308Z,5.20
2023-03-08T10:27:23.252Z,5.00
2023-03-08T10:30:00.543Z,5.00
2023-03-08T10:32:30.205Z,5.10
2023-03-08T10:35:03.287Z,5.30
2023-03-08T10:37:32.336Z,5.40
2023-03-08T10:40:02.271Z,5.50
2023-03-08T10:42:29.784Z,5.50
2023-03-08T10:44:59.843Z,5.50
2023-03-08T10:47:31.391Z,5.90
2023-03-08T10:50:16.458Z,6.60
2023-03-08T10:52:45.250Z,7.30
2023-03-08T10:55:26.288Z,9.20
2023-03-08T10:57:59.451Z,11.80
2023-03-08T11:00:35.702Z,14.80
2023-03-08T11:03:12.983Z,17.40
2023-03-08T11:05:51.909Z,19.60
2023-03-08T11:08:22.954Z,20.50
2023-03-08T11:11:06.229Z,20.40
2023-03-08T11:13:42.085Z,20.10
2023-03-08T11:16:34.049Z,19.30
2023-03-08T11:19:22.525Z,18.10
2023-03-08T11:22:07.678Z,16.30
2023-03-08T11:24:54.934Z,14.70
2023-03-08T11:27:54.828Z,13.10
2023-03-08T11:30:27.897Z,12.40
2023-03-08T11:33:39.657Z,11.80
2023-03-08T11:36:19.653Z,11.30
2023-03-08T11:38:57.794Z,10.30
2023-03-08T11:41:31.112Z,9.80
2023-03-08T11:44:16.431Z,9.30
2023-03-08T11:46:43.476Z,9.00
2023-03-08T11:49:35.634Z,8.50
2023-03-08T11:52:27.395Z,7.70
2023-03-08T11:54:57.513Z,7.50
2023-03-08T11:57:27.244Z,7.30
2023-03-08T12:00:02.768Z,7.30
2023-03-08T12:02:35.879Z,6.90
2023-03-08T12:05:28.323Z,6.70
2023-03-08T12:08:00.268Z,6.80
2023-03-08T12:10:36.641Z,6.70
2023-03-08T12:13:42.171Z,6.70
2023-03-08T12:16:35.009Z,6.70
2023-03-08T12:19:31.057Z,6.80
2023-03-08T12:22:29.019Z,6.80
2023-03-08T12:25:15.037Z,6.90
2023-03-08T12:28:09.767Z,6.90
2023-03-08T12:30:39.965Z,7.00
2023-03-08T12:33:13.582Z,7.20
2023-03-08T12:35:53.505Z,7.30
2023-03-08T12:38:20.960Z,7.20
2023-03-08T12:40:56.080Z,7.20
2023-03-08T12:43:23.413Z,7.20
2023-03-08T12:45:59.454Z,7.10
2023-03-08T12:48:28.454Z,7.10
2023-03-08T12:51:13.658Z,7.30
2023-03-08T12:53:49.984Z,7.60
2023-03-08T12:56:32.234Z,7.80
2023-03-08T12:59:23.866Z,7.90
2023-03-08T13:01:57.317Z,8.00
2023-03-08T13:04:41.370Z,7.90
2023-03-08T13:07:09.080Z,7.80
2023-03-08T13:09:43.456Z,7.50
2023-03-08T13:12:16.328Z,7.10
2023-03-08T13:15:00.383Z,6.60
2023-03-08T13:17:36.261Z,6.30
2023-03-08T13:20:18.330Z,6.10
2023-03-08T13:23:16.103Z,6.10
2023-03-08T13:26:14.965Z,6.00
2023-03-08T13:28:48.261Z,5.90
2023-03-08T13:31:21.768Z,5.80
2023-03-08T13:33:53.773Z,5.80
2023-03-08T13:36:22.375Z,5.70
2023-03-08T13:39:18.408Z,5.70
2023-03-08T13:41:47.482Z,5.60
2023-03-08T13:44:25.763Z,5.50
2023-03-08T13:47:04.312Z,5.30
2023-03-08T13:49:31.438Z,5.30
2023-03-08T13:52:32.505Z,5.30
2023-03-08T13:55:05.820Z,5.20
2023-03-08T13:57:36.821Z,5.10
2023-03-08T14:00:27.945Z,5.00
2023-03-08T14:02:59.534Z,5.10
2023-03-08T14:05:34.806Z,5.10
2023-03-08T14:08:05.450Z,5.10
2023-03-08T14:10:42.015Z,5.10
2023-03-08T14:13:31.085Z,4.90
2023-03-08T14:16:04.501Z,4.80
2023-03-08T14:18:42.546Z,4.70
2023-03-08T14:21:24.426Z,4.60
2023-03-08T14:23:56.090Z,4.50
2023-03-08T14:26:27.694Z,4.50
2023-03-08T14:29:18.989Z,4.50
2023-03-08T14:31:58.254Z,4.50
2023-03-08T14:34:34.822Z,4.50
2023-03-08T14:37:06.378Z,4.50
2023-03-08T14:39:40.827Z,4.60
2023-03-08T14:42:24.644Z,4.70
2023-03-08T14:44:58.163Z,4.80
2023-03-08T14:47:31.161Z,4.90
2023-03-08T14:50:04.014Z,4.90
2023-03-08T14:52:36.545Z,4.90
2023-03-08T14:55:18.900Z,4.90
2023-03-08T14:57:46.046Z,4.90
2023-03-08T15:00:15.650Z,4.90
2023-03-08T15:02:46.133Z,5.00
2023-03-08T15:05:28.432Z,5.10
2023-03-08T15:07:59.945Z,5.10
2023-03-08T15:10:37.084Z,5.20
2023-03-08T15:13:05.645Z,5.20
2023-03-08T15:15:33.071Z,5.20
2023-03-08T15:18:00.224Z,5.40
2023-03-08T15:20:30.053Z,5.50
2023-03-08T15:23:04.641Z,5.50
2023-03-08T15:25:36.215Z,5.60
2023-03-08T15:28:06.454Z,5.70
2023-03-08T15:30:33.907Z,5.70
2023-03-08T15:33:03.494Z,5.50
2023-03-08T15:35:31.244Z,5.50
2023-03-08T15:38:03.043Z,5.40
2023-03-08T15:40:34.155Z,5.30
2023-03-08T15:43:04.136Z,5.20
2023-03-08T15:45:31.681Z,5.10
2023-03-08T15:48:01.520Z,5.10
2023-03-08T15:50:29.712Z,5.00
2023-03-08T15:52:57.781Z,5.00
2023-03-08T15:55:27.658Z,5.00
2023-03-08T15:57:55.188Z,5.00
2023-03-08T16:00:25.787Z,5.00
2023-03-08T16:02:53.067Z,5.00
2023-03-08T16:05:21.885Z,4.90
2023-03-08T16:07:57.500Z,4.70
2023-03-08T16:10:25.054Z,4.70
2023-03-08T16:12:54.671Z,4.80
2023-03-08T16:15:25.114Z,4.90
2023-03-08T16:17:52.255Z,5.00
2023-03-08T16:20:19.636Z,5.00
2023-03-08T16:22:46.822Z,5.00
2023-03-08T16:25:14.256Z,4.90
2023-03-08T16:27:43.858Z,4.80
2023-03-08T16:30:12.778Z,4.90
2023-03-08T16:32:48.223Z,4.80
2023-03-08T16:35:24.921Z,4.70
2023-03-08T16:37:53.623Z,4.70
2023-03-08T16:40:21.079Z,4.70
2023-03-08T16:42:51.244Z,4.80
2023-03-08T16:45:18.918Z,4.80
2023-03-08T16:47:46.045Z,4.80
2023-03-08T16:50:13.853Z,4.80
2023-03-08T16:52:40.955Z,4.80
2023-03-08T16:55:08.725Z,4.80
2023-03-08T16:57:38.193Z,4.80
2023-03-08T17:00:08.873Z,4.70
2023-03-08T17:02:38.278Z,4.70
2023-03-08T17:05:06.573Z,4.70
2023-03-08T17:07:35.928Z,4.50
2023-03-08T17:10:07.102Z,4.40
2023-03-08T17:12:34.299Z,4.40
2023-03-08T17:15:01.761Z,4.30
2023-03-08T17:17:28.933Z,4.40
2023-03-08T17:19:58.766Z,4.30
2023-03-08T17:22:28.135Z,4.30
2023-03-08T17:24:55.575Z,4.20
2023-03-08T17:27:22.968Z,4.20
2023-03-08T17:29:50.315Z,4.20
2023-03-08T17:32:19.849Z,4.20
2023-03-08T17:34:47.462Z,4.10
2023-03-08T17:37:14.575Z,4.10
2023-03-08T17:39:44.561Z,4.10
2023-03-08T17:42:12.427Z,4.10
2023-03-08T17:44:40.038Z,4.20
2023-03-08T17:47:07.166Z,4.20
2023-03-08T17:49:34.545Z,4.30
2023-03-08T17:52:01.820Z,4.30
2023-03-08T17:54:31.816Z,4.30
2023-03-08T17:57:01.490Z,4.40
2023-03-08T17:59:29.264Z,4.50
2023-03-08T18:01:56.517Z,4.50
2023-03-08T18:04:28.697Z,4.60
2023-03-08T18:06:55.752Z,4.70
2023-03-08T18:09:23.186Z,4.80
2023-03-08T18:11:54.874Z,4.80
2023-03-08T18:14:37.817Z,4.80
2023-03-08T18:17:06.636Z,4.80
2023-03-08T18:19:34.157Z,4.90
2023-03-08T18:22:01.248Z,4.90
2023-03-08T18:24:28.617Z,5.00
2023-03-08T18:26:55.793Z,5.00
2023-03-08T18:29:23.517Z,5.00
2023-03-08T18:31:50.673Z,5.00
2023-03-08T18:34:20.514Z,5.00
2023-03-08T18:36:47.687Z,5.00
2023-03-08T18:39:17.447Z,4.90
2023-03-08T18:41:44.496Z,4.90
2023-03-08T18:44:12.637Z,4.90
2023-03-08T18:46:42.661Z,4.80
2023-03-08T18:49:16.254Z,4.80
2023-03-08T18:51:43.514Z,4.80
2023-03-08T18:54:15.777Z,4.80
2023-03-08T18:56:43.539Z,4.80
2023-03-08T18:59:14.427Z,4.80
2023-03-08T19:01:43.889Z,4.70
2023-03-08T19:04:13.490Z,4.70
2023-03-08T19:06:40.545Z,4.70
2023-03-08T19:09:18.091Z,4.70
2023-03-08T19:11:48.507Z,4.70
2023-03-08T19:14:17.587Z,4.70
2023-03-08T19:16:45.129Z,4.70
2023-03-08T19:19:15.151Z,4.70
2023-03-08T19:21:46.694Z,4.80
2023-03-08T19:24:15.586Z,4.80
2023-03-08T19:26:43.933Z,4.80
2023-03-08T19:29:31.520Z,4.80
2023-03-08T19:32:01.471Z,4.80
2023-03-08T19:34:32.173Z,4.90
2023-03-08T19:37:02.316Z,4.90
2023-03-08T19:39:34.555Z,4.90
2023-03-08T19:42:06.832Z,4.90
2023-03-08T19:44:36.688Z,4.90
2023-03-08T19:47:04.805Z,4.90
2023-03-08T19:49:34.754Z,4.90
2023-03-08T19:52:05.237Z,5.00
2023-03-08T19:54:33.303Z,5.00
2023-03-08T19:57:01.080Z,5.00
2023-03-08T19:59:28.837Z,4.90
2023-03-08T20:01:56.552Z,4.90
2023-03-08T20:04:26.454Z,4.80
2023-03-08T20:06:53.534Z,4.80
2023-03-08T20:09:21.436Z,4.80
2023-03-08T20:11:53.519Z,4.80
2023-03-08T20:14:24.398Z,4.80
2023-03-08T20:16:51.950Z,4.80
2023-03-08T20:19:19.689Z,4.80
2023-03-08T20:21:49.618Z,4.80
2023-03-08T20:24:17.743Z,4.90
2023-03-08T20:26:45.706Z,4.90
2023-03-08T20:29:15.628Z,4.90
2023-03-08T20:31:42.779Z,5.00
2023-03-08T20:34:12.797Z,5.00
2023-03-08T20:36:40.134Z,5.10
2023-03-08T20:39:07.652Z,5.20
2023-03-08T20:41:34.708Z,5.20
2023-03-08T20:44:05.208Z,5.20
2023-03-08T20:46:32.397Z,5.30
2023-03-08T20:48:59.874Z,5.40
2023-03-08T20:51:29.395Z,5.50
2023-03-08T20:53:57.280Z,5.60
2023-03-08T20:56:25.541Z,5.60
2023-03-08T20:58:57.173Z,5.60
2023-03-08T21:01:30.612Z,5.60
2023-03-08T21:04:00.490Z,5.60
2023-03-08T21:06:30.573Z,5.60
2023-03-08T21:09:01.561Z,5.60
2023-03-08T21:11:29.265Z,5.70
2023-03-08T21:13:56.949Z,5.70
2023-03-08T21:16:28.462Z,5.80
2023-03-08T21:18:58.122Z,5.80
2023-03-08T21:21:26.548Z,5.80
2023-03-08T21:23:59.040Z,5.80
2023-03-08T21:26:27.244Z,5.80
2023-03-08T21:29:00.436Z,5.80
2023-03-08T21:31:29.277Z,5.90
2023-03-08T21:33:58.075Z,5.90
2023-03-08T21:36:25.196Z,5.90
2023-03-08T21:38:54.699Z,6.00
2023-03-08T21:41:29.310Z,6.00
2023-03-08T21:43:57.069Z,6.00
2023-03-08T21:46:25.166Z,6.00
2023-03-08T21:48:52.747Z,6.00
2023-03-08T21:51:19.879Z,6.00
2023-03-08T21:53:49.542Z,6.00
2023-03-08T21:56:18.312Z,5.90
2023-03-08T21:58:48.343Z,5.90
2023-03-08T22:01:23.910Z,5.90
2023-03-08T22:03:51.624Z,5.90
2023-03-08T22:06:19.272Z,5.90
2023-03-08T22:08:49.903Z,5.80
2023-03-08T22:11:18.694Z,5.80
2023-03-08T22:13:55.047Z,5.80
2023-03-08T22:16:22.182Z,5.80
2023-03-08T22:18:53.286Z,5.80
2023-03-08T22:21:21.045Z,5.80
2023-03-08T22:23:53.040Z,5.80
2023-03-08T22:26:21.803Z,5.80
2023-03-08T22:28:49.285Z,5.90
2023-03-08T22:31:21.103Z,6.00
2023-03-08T22:33:48.856Z,6.20
2023-03-08T22:36:17.471Z,6.30
2023-03-08T22:38:45.104Z,6.40
2023-03-08T22:41:30.308Z,6.40
2023-03-08T22:43:57.667Z,6.30
2023-03-08T22:46:27.945Z,6.30
2023-03-08T22:48:59.064Z,6.20
2023-03-08T22:51:27.091Z,6.20
2023-03-08T22:53:54.792Z,6.10
2023-03-08T22:56:23.250Z,6.10
2023-03-08T22:58:53.264Z,6.10
2023-03-08T23:01:23.457Z,6.10
2023-03-08T23:03:57.066Z,6.20
2023-03-08T23:06:25.879Z,6.20
2023-03-08T23:08:53.557Z,6.20
2023-03-08T23:11:23.061Z,6.20
2023-03-08T23:13:50.660Z,6.20
2023-03-08T23:16:17.964Z,6.20
2023-03-08T23:18:51.079Z,6.20
2023-03-08T23:21:22.854Z,6.20
2023-03-08T23:23:50.457Z,6.10
2023-03-08T23:26:20.873Z,6.20
2023-03-08T23:28:48.627Z,6.20
2023-03-08T23:31:19.088Z,6.20
2023-03-08T23:33:47.093Z,6.20
2023-03-08T23:36:19.061Z,6.20
2023-03-08T23:38:46.789Z,6.30
2023-03-08T23:41:16.613Z,6.20
2023-03-08T23:43:44.549Z,6.30
2023-03-08T23:46:17.538Z,6.30
2023-03-08T23:48:48.455Z,6.30
2023-03-08T23:51:20.170Z,6.30
2023-03-08T23:53:51.967Z,6.40
2023-03-08T23:56:26.576Z,6.40
2023-03-08T23:58:55.630Z,6.40
